24 de setembro de 2022

Hora Código Clima Temp. Visibilidade Tecto Vento METAR/SPECI
10:00 da manhã
L
32 °F 0 mi - Var 000° 0 kt METAR CYBW 241600Z AUTO /////KT RMK WIND MISG CLD MISG WX MISG VIS MISG PCPN MISG PRES MISG T MISG DP MISG ICE MISG RVR MISG DENSITY ALT MISG
9:00 da manhã
L
32 °F 0 mi - Var 000° 0 kt METAR CYBW 241500Z AUTO /////KT RMK WIND MISG CLD MISG WX MISG VIS MISG PCPN MISG PRES MISG T MISG DP MISG ICE MISG RVR MISG DENSITY ALT MISG
4:00 da manhã
V
45 °F 9 mi 12.000 ft 300° 300° 4 kt METAR CYBW 241000Z AUTO 30004KT 9SM OVC120 07/01 A3000 RMK SLP170
3:00 da manhã
V
46 °F 9 mi - 310° 310° 8 kt METAR CYBW 240900Z AUTO 31008KT 9SM FEW120 08/01 A2998 RMK SLP162 DENSITY ALT 4000FT
2:00 da manhã
V
50 °F 9 mi 15.000 ft 290° 290° 5 kt METAR CYBW 240800Z AUTO 29005KT 9SM BKN150 10/01 A2996 RMK SLP156 DENSITY ALT 4300FT
1:00 da manhã
V
50 °F 9 mi 10.000 ft 300° 300° 9 kt METAR CYBW 240700Z AUTO 30009KT 9SM BKN100 10/02 A2994 RMK SLP148 DENSITY ALT 4300FT
12:00 da manhã
V
50 °F 9 mi 10.000 ft 320° 320° 6 kt METAR CYBW 240600Z AUTO 32006KT 9SM OVC100 10/02 A2994 RMK SLP146 DENSITY ALT 4300FT

23 de setembro de 2022

Hora Código Clima Temp. Visibilidade Tecto Vento METAR/SPECI
11:00 da tarde
V
50 °F 9 mi - 290° 290° 5 kt METAR CYBW 240500Z AUTO 29005KT 9SM SCT110 10/01 A2994 RMK SLP145 DENSITY ALT 4200FT
10:00 da tarde
V
48 °F 9 mi - 290° 290° 7 kt METAR CYBW 240400Z AUTO 29007KT 9SM CLR 09/01 A2993 RMK SLP147 DENSITY ALT 4100FT
9:00 da tarde
V
54 °F 9 mi - 280° 280° 11 kt METAR CYBW 240300Z AUTO 28011KT 9SM FEW130 12/00 A2992 RMK SLP143 DENSITY ALT 4500FT
8:00 da tarde
V
54 °F 9 mi - 260° 260° 11 - 16 kt METAR CYBW 240200Z AUTO 26011G16KT 9SM SCT130 SCT150 12/01 A2990 RMK SLP137 DENSITY ALT 4500FT
7:00 da tarde
V
54 °F 9 mi - 260° 260° 10 kt METAR CYBW 240100Z AUTO 26010KT 9SM CLR 12/02 A2989 RMK SLP132 DENSITY ALT 4500FT
6:00 da tarde
V
61 °F 9 mi - 270° 270° 20 - 25 kt METAR CYBW 240000Z AUTO 27020G25KT 9SM 16/01 A2988 RMK CLD MISG SLP118 DENSITY ALT 5000FT
5:00 da tarde
V
61 °F 9 mi - 260° 260° 21 - 26 kt METAR CYBW 232300Z AUTO 26021G26KT 9SM CLR 16/01 A2987 RMK SLP112 DENSITY ALT 5100FT
4:00 da tarde
V
63 °F 9 mi - 250° 250° 18 - 23 kt METAR CYBW 232200Z AUTO 25018G23KT 9SM FEW160 17/02 A2987 RMK SLP109 DENSITY ALT 5200FT
3:00 da tarde
V
63 °F 9 mi - 250° 250° 10 kt METAR CYBW 232100Z AUTO 25010KT 9SM FEW100 17/04 A2988 RMK SLP112 DENSITY ALT 5200FT
2:42 da tarde
V
61 °F 9 mi 7.100 ft 250° 250° 3 kt METAR CYBW 232042Z AUTO 25003KT 230V300 9SM BKN071 BKN094 BKN110 16/03 A2988 RMK SLP119 DENSITY ALT 5000FT
2:00 da tarde
V
57 °F 9 mi 6.600 ft 340° 340° 14 - 21 kt METAR CYBW 232000Z AUTO 34014G21KT 9SM -RA BKN066 OVC075 14/04 A2990 RMK SLP144 DENSITY ALT 4800FT
1:59 da tarde
V
57 °F 9 mi 6.600 ft 340° 340° 11 - 17 kt METAR CYBW 231959Z AUTO 34011G17KT 9SM -RA OVC066 14/05 A2991 RMK WSHFT AT 1945Z SLP131 DENSITY ALT 4800FT
1:00 da tarde
V
61 °F 9 mi 10.000 ft 260° 260° 12 - 20 kt METAR CYBW 231900Z AUTO 26012G20KT 9SM BKN100 BKN120 BKN140 16/02 A2988 RMK SLP136 DENSITY ALT 5000FT
12:50 da tarde
V
61 °F 9 mi 10.000 ft 270° 270° 18 kt METAR CYBW 231850Z AUTO 27018KT 9SM BKN100 BKN120 BKN140 16/02 A2988 RMK SLP115 DENSITY ALT 5100FT
12:00 da tarde
V
63 °F 9 mi 10.000 ft 290° 290° 7 - 15 kt METAR CYBW 231800Z AUTO 29007G15KT 9SM BKN100 BKN140 17/02 A2988 RMK SLP136 DENSITY ALT 5100FT
11:00 da manhã
V
63 °F 9 mi - 280° 280° 10 kt METAR CYBW 231700Z AUTO 28010KT 9SM 17/03 A2987 RMK CLD MISG SLP129 DENSITY ALT 5100FT
10:00 da manhã
V
57 °F 9 mi 13.000 ft 290° 290° 7 kt METAR CYBW 231600Z AUTO 29007KT 9SM BKN130 BKN160 14/04 A2987 RMK SLP131 DENSITY ALT 4900FT
9:00 da manhã
V
52 °F 9 mi 14.000 ft 320° 320° 7 kt METAR CYBW 231500Z AUTO 32007KT 9SM BKN140 11/04 A2986 RMK SLP133 DENSITY ALT 4500FT
2:00 da manhã
V
41 °F 9 mi - 310° 310° 6 kt METAR CYBW 230800Z AUTO 31006KT 9SM CLR 05/03 A2973 RMK SLP081
1:00 da manhã
V
39 °F 9 mi - 270° 270° 3 kt METAR CYBW 230700Z AUTO 27003KT 250V320 9SM CLR 04/02 A2972 RMK SLP084
12:00 da manhã
V
37 °F 9 mi - 310° 310° 6 kt METAR CYBW 230600Z AUTO 31006KT 9SM CLR 03/02 A2971 RMK SLP085

22 de setembro de 2022

Hora Código Clima Temp. Visibilidade Tecto Vento METAR/SPECI
11:00 da tarde
V
43 °F 9 mi - 300° 300° 3 kt METAR CYBW 230500Z AUTO 30003KT 9SM CLR 06/04 A2971 RMK SLP086 DENSITY ALT 4100FT
10:00 da tarde
V
43 °F 9 mi - 310° 310° 3 kt METAR CYBW 230400Z AUTO 31003KT 270V330 9SM CLR 06/05 A2971 RMK SLP086 DENSITY ALT 4100FT
9:00 da tarde
V
45 °F 9 mi - 200° 200° 4 kt METAR CYBW 230300Z AUTO 20004KT 9SM CLR 07/05 A2970 RMK SLP089 DENSITY ALT 4200FT
8:00 da tarde
V
48 °F 9 mi - 170° 170° 6 kt METAR CYBW 230200Z AUTO 17006KT 9SM SCT130 09/05 A2971 RMK SLP093 DENSITY ALT 4400FT
7:00 da tarde
V
57 °F 9 mi 12.000 ft 160° 160° 7 kt METAR CYBW 230100Z AUTO 16007KT 9SM OVC120 14/06 A2971 RMK SLP085 DENSITY ALT 5000FT
6:00 da tarde
V
59 °F 9 mi 12.000 ft 170° 170° 6 kt METAR CYBW 230000Z AUTO 17006KT 9SM BKN120 15/06 A2970 RMK SLP080 DENSITY ALT 5100FT
5:00 da tarde
V
61 °F 9 mi 13.000 ft 170° 170° 6 kt METAR CYBW 222300Z AUTO 17006KT 9SM BKN130 16/06 A2971 RMK SLP080 DENSITY ALT 5300FT
4:00 da tarde
V
63 °F 9 mi - 170° 170° 7 kt METAR CYBW 222200Z AUTO 17007KT 080V200 9SM FEW240 17/07 A2972 RMK SLP080 DENSITY ALT 5300FT
3:00 da tarde
V
63 °F 9 mi - Var 000° 0 kt METAR CYBW 222100Z AUTO 00000KT 9SM FEW240 17/04 A2973 RMK SLP084 DENSITY ALT 5400FT
2:00 da tarde
V
61 °F 9 mi - Var Var 2 kt METAR CYBW 222000Z AUTO VRB02KT 9SM SCT140 16/05 A2974 RMK SLP090 DENSITY ALT 5200FT
1:00 da tarde
V
55 °F 9 mi - 190° 190° 3 kt METAR CYBW 221900Z AUTO 19003KT 150V220 9SM CLR 13/05 A2977 RMK SLP099 DENSITY ALT 4800FT
12:00 da tarde
V
52 °F 9 mi - 180° 180° 3 kt METAR CYBW 221800Z AUTO 18003KT 150V230 9SM FEW140 11/04 A2979 RMK SLP106 DENSITY ALT 4600FT
11:00 da manhã
V
46 °F 9 mi - Var 000° 0 kt METAR CYBW 221700Z AUTO 00000KT 9SM CLR 08/03 A2981 RMK SLP117 DENSITY ALT 4200FT
10:00 da manhã
V
43 °F 9 mi 14.000 ft Var Var 2 kt METAR CYBW 221600Z AUTO VRB02KT 9SM BKN140 06/03 A2983 RMK SLP127 DENSITY ALT 4000FT
9:00 da manhã
V
37 °F 9 mi - 340° 340° 4 kt METAR CYBW 221500Z AUTO 34004KT 9SM SCT190 03/02 A2984 RMK SLP133
Dados mais antigos

Nós e terceiros acompanhamos seu comportamento na internet em nosso site com cookies. Se você continuar, nós assumimos que você concorda com nossa política de cookies. Saiba mais